Time;durP1;ratioP1;P1;durP2;ratioP2;P2;SDS_P1;SDS_P2;PMS_P1;PMS_P2;Temp;Humidity;BMP_temperature;BMP_pressure;BME280_temperature;BME280_humidity;BME280_pressure;Samples;Min_cycle;Max_cycle;Signal;HPM_P1;HPM_P2
2022/11/09 00:02:07;;;;;;;4.63;2.25;;;11.50;99.90;;;;;;5008634;28;20029;-48
2022/11/09 00:04:32;;;;;;;3.00;2.10;;;11.50;99.90;;;;;;4988440;28;20035;-52
2022/11/09 00:06:58;;;;;;;3.25;2.30;;;11.50;99.90;;;;;;5008424;28;20091;-53
2022/11/09 00:09:23;;;;;;;3.88;2.17;;;11.40;99.90;;;;;;4989225;28;20030;-53
2022/11/09 00:11:48;;;;;;;3.00;2.00;;;11.40;99.90;;;;;;5006257;28;20026;-52
2022/11/09 00:14:16;;;;;;;3.80;1.73;;;11.40;99.90;;;;;;4989388;28;20097;-53
2022/11/09 00:16:41;;;;;;;4.25;1.92;;;11.30;99.90;;;;;;4987700;28;20486;-54
2022/11/09 00:19:06;;;;;;;2.60;1.80;;;11.30;99.90;;;;;;5007478;28;20133;-48
2022/11/09 00:21:32;;;;;;;4.05;2.10;;;11.30;99.90;;;;;;4987370;28;20046;-51
2022/11/09 00:23:57;;;;;;;3.72;2.00;;;11.30;99.90;;;;;;5007608;28;20060;-53
2022/11/09 00:26:24;;;;;;;3.33;1.98;;;11.30;99.90;;;;;;4987355;28;20045;-54
2022/11/09 00:28:49;;;;;;;2.83;2.03;;;11.30;99.90;;;;;;5008324;28;20079;-53
2022/11/09 00:31:19;;;;;;;3.53;2.40;;;11.30;99.90;;;;;;4987288;28;20522;-53
2022/11/09 00:33:49;;;;;;;3.42;1.92;;;11.20;99.90;;;;;;5008923;28;20076;-56
2022/11/09 00:36:15;;;;;;;2.85;1.80;;;11.20;99.90;;;;;;4991051;28;20034;-54
2022/11/09 00:38:41;;;;;;;3.58;2.10;;;11.20;99.90;;;;;;5006103;28;20046;-50
2022/11/09 00:41:08;;;;;;;3.17;1.83;;;11.20;99.90;;;;;;5004252;28;20026;-52
2022/11/09 00:43:34;;;;;;;2.42;2.20;;;11.20;99.90;;;;;;4992815;28;20027;-51
2022/11/09 00:45:59;;;;;;;4.93;1.70;;;11.20;99.90;;;;;;4996796;28;20026;-53
2022/11/09 00:48:25;;;;;;;3.83;2.22;;;11.20;99.90;;;;;;5011427;28;20026;-51
2022/11/09 00:50:55;;;;;;;3.55;2.17;;;11.20;99.90;;;;;;4991054;28;20041;-53
2022/11/09 00:53:21;;;;;;;4.85;2.28;;;11.20;99.90;;;;;;5012024;28;20034;-52
2022/11/09 00:56:16;;;;;;;2.78;1.88;;;11.20;99.90;;;;;;4990867;28;20134;-50
2022/11/09 00:58:42;;;;;;;2.00;1.70;;;11.20;99.90;;;;;;4972201;28;20042;-50
2022/11/09 01:01:15;;;;;;;5.72;2.30;;;11.10;99.90;;;;;;4994830;28;20106;-53
2022/11/09 01:03:41;;;;;;;3.53;1.75;;;11.10;99.90;;;;;;5011511;28;20121;-52
2022/11/09 01:06:12;;;;;;;2.58;1.83;;;11.10;99.90;;;;;;4990829;28;20150;-53
2022/11/09 01:08:38;;;;;;;2.40;1.70;;;11.10;99.90;;;;;;4972800;28;20062;-50
2022/11/09 01:11:08;;;;;;;3.13;1.58;;;11.20;99.90;;;;;;4995263;28;20498;-53
2022/11/09 01:13:35;;;;;;;4.32;2.08;;;11.10;99.90;;;;;;5011226;28;20087;-54
2022/11/09 01:16:06;;;;;;;3.72;2.40;;;11.10;99.90;;;;;;4990541;28;20026;-51
2022/11/09 01:18:32;;;;;;;3.33;1.60;;;11.20;99.90;;;;;;4972729;28;20090;-54
2022/11/09 01:20:57;;;;;;;2.58;1.80;;;11.10;99.90;;;;;;4996046;28;20038;-51
2022/11/09 01:23:23;;;;;;;3.28;2.05;;;11.10;99.90;;;;;;5010697;28;20593;-53
2022/11/09 01:25:55;;;;;;;3.75;1.77;;;11.10;99.90;;;;;;4990633;28;20509;-49
2022/11/09 01:28:21;;;;;;;3.92;2.30;;;11.10;99.90;;;;;;4982072;28;20033;-54
2022/11/09 01:30:46;;;;;;;4.03;2.15;;;11.10;99.90;;;;;;4992268;28;20038;-48
2022/11/09 01:33:12;;;;;;;3.17;2.00;;;11.00;99.90;;;;;;5006538;28;20038;-48
2022/11/09 01:35:39;;;;;;;4.25;2.10;;;11.10;99.90;;;;;;4999173;28;20100;-51
2022/11/09 01:38:06;;;;;;;2.92;1.67;;;11.10;99.90;;;;;;4991853;28;20034;-54
2022/11/09 01:40:34;;;;;;;1.83;1.60;;;11.10;99.90;;;;;;5008913;28;20071;-56
2022/11/09 01:43:14;;;;;;;4.22;2.20;;;11.10;99.90;;;;;;4991580;28;20030;-55
2022/11/09 01:45:41;;;;;;;3.65;2.30;;;11.10;99.90;;;;;;4987497;28;20034;-55
2022/11/09 01:48:14;;;;;;;3.22;2.05;;;11.20;99.90;;;;;;4991546;28;20034;-56
2022/11/09 01:50:49;;;;;;;3.38;2.13;;;11.20;99.90;;;;;;4989987;28;20038;-54
2022/11/09 01:53:21;;;;;;;2.63;1.70;;;11.20;99.90;;;;;;4972078;28;20070;-53
2022/11/09 01:55:50;;;;;;;2.67;1.60;;;11.20;99.90;;;;;;5006239;28;20029;-57
2022/11/09 01:58:22;;;;;;;2.67;1.50;;;11.20;99.90;;;;;;5010635;28;20022;-56
2022/11/09 02:00:49;;;;;;;4.57;2.42;;;11.10;99.90;;;;;;4974030;28;20477;-56
2022/11/09 02:03:25;;;;;;;3.65;1.67;;;11.10;99.90;;;;;;5010677;28;20072;-56
2022/11/09 02:05:51;;;;;;;3.78;1.85;;;11.10;99.90;;;;;;4975431;28;20040;-54
2022/11/09 02:08:20;;;;;;;3.28;1.90;;;11.10;99.90;;;;;;5010645;28;20030;-54
2022/11/09 02:11:03;;;;;;;3.65;1.65;;;11.10;99.90;;;;;;4991097;28;20101;-56
2022/11/09 02:13:30;;;;;;;4.65;2.03;;;11.00;99.90;;;;;;5010608;28;20026;-55
2022/11/09 02:15:56;;;;;;;3.85;2.00;;;11.00;99.90;;;;;;4992805;28;20026;-56
2022/11/09 02:18:22;;;;;;;4.00;1.80;;;11.00;99.90;;;;;;5010493;28;20084;-57
2022/11/09 02:20:53;;;;;;;2.40;1.80;;;10.90;99.90;;;;;;4991693;28;20103;-54
2022/11/09 02:23:19;;;;;;;4.13;2.40;;;10.80;99.90;;;;;;5010327;28;20502;-55
2022/11/09 02:25:52;;;;;;;4.00;1.80;;;10.80;99.90;;;;;;4991194;28;20482;-56
2022/11/09 02:28:19;;;;;;;2.20;1.63;;;10.70;99.90;;;;;;5004264;28;20026;-55
2022/11/09 02:30:48;;;;;;;3.92;1.80;;;10.70;99.90;;;;;;4989026;28;20475;-55
2022/11/09 02:33:13;;;;;;;3.00;1.85;;;10.70;99.90;;;;;;4990553;28;20065;-55
2022/11/09 02:35:39;;;;;;;3.75;2.00;;;10.60;99.90;;;;;;5007132;28;20037;-55
2022/11/09 02:38:08;;;;;;;3.42;2.15;;;10.50;99.90;;;;;;4990649;28;20513;-55
2022/11/09 02:40:37;;;;;;;9.38;2.15;;;10.50;99.90;;;;;;5008128;28;20397;-54
2022/11/09 02:43:05;;;;;;;2.28;1.42;;;10.40;99.90;;;;;;4990320;28;20529;-54
2022/11/09 02:45:30;;;;;;;2.80;1.58;;;10.30;99.90;;;;;;5007360;28;20026;-54
2022/11/09 02:47:56;;;;;;;2.90;1.80;;;10.30;99.90;;;;;;4990799;28;20702;-56
2022/11/09 02:50:22;;;;;;;2.67;1.90;;;10.20;99.90;;;;;;5007120;28;20057;-55
2022/11/09 02:52:47;;;;;;;2.22;1.77;;;10.20;99.90;;;;;;4990479;28;20375;-56
2022/11/09 02:55:13;;;;;;;2.10;1.60;;;10.10;99.90;;;;;;5006759;28;20030;-56
2022/11/09 02:57:39;;;;;;;4.55;1.90;;;10.10;99.90;;;;;;5009289;28;20026;-54
2022/11/09 03:00:05;;;;;;;2.67;1.75;;;10.00;99.90;;;;;;4993896;28;20014;-56
2022/11/09 03:02:31;;;;;;;3.45;2.15;;;10.00;99.90;;;;;;5009527;28;20034;-54
2022/11/09 03:04:56;;;;;;;1.77;1.45;;;9.90;99.90;;;;;;4992466;28;20088;-55
2022/11/09 03:07:21;;;;;;;3.55;2.00;;;9.90;99.90;;;;;;5009434;28;20100;-53
2022/11/09 03:09:47;;;;;;;3.03;2.00;;;10.00;99.90;;;;;;4991146;28;20108;-55
2022/11/09 03:12:27;;;;;;;4.20;2.17;;;10.00;99.90;;;;;;5009251;28;20568;-56
2022/11/09 03:14:53;;;;;;;3.65;2.60;;;10.00;99.90;;;;;;4975868;28;20030;-54
2022/11/09 03:17:19;;;;;;;4.78;2.70;;;10.00;99.90;;;;;;5009424;28;20026;-56
2022/11/09 03:19:45;;;;;;;5.15;2.25;;;10.00;99.90;;;;;;4990866;28;21004;-56
2022/11/09 03:22:10;;;;;;;3.13;1.85;;;9.90;99.90;;;;;;5009373;28;20109;-53
2022/11/09 03:24:35;;;;;;;5.38;1.85;;;9.90;99.90;;;;;;4989444;28;20114;-56
2022/11/09 03:27:01;;;;;;;2.08;1.50;;;9.90;99.90;;;;;;4995734;28;20549;-55
2022/11/09 03:29:26;;;;;;;3.42;1.92;;;9.90;99.90;;;;;;5006377;28;20022;-52
2022/11/09 03:31:52;;;;;;;2.90;1.77;;;9.90;99.90;;;;;;5009025;28;20030;-56
2022/11/09 03:34:17;;;;;;;3.78;1.50;;;9.80;99.90;;;;;;4989824;28;20085;-56
2022/11/09 03:36:43;;;;;;;6.30;2.40;;;9.80;99.90;;;;;;4987805;28;20056;-55
2022/11/09 03:39:08;;;;;;;2.88;1.70;;;9.80;99.90;;;;;;4998947;28;20046;-56
2022/11/09 03:41:34;;;;;;;3.22;1.75;;;9.80;99.90;;;;;;4988828;28;20406;-56
2022/11/09 03:47:21;;;;;;;4.53;2.05;;;9.70;99.90;;;;;;5000771;28;20040;-54
2022/11/09 03:49:47;;;;;;;3.05;1.70;;;9.70;99.90;;;;;;4989864;28;20437;-51
2022/11/09 03:52:12;;;;;;;4.05;1.60;;;9.60;99.90;;;;;;4990981;28;20037;-52
2022/11/09 03:54:38;;;;;;;3.08;1.95;;;9.60;99.90;;;;;;5007796;28;20088;-53
2022/11/09 03:57:03;;;;;;;6.15;2.00;;;9.60;99.90;;;;;;4987730;28;20044;-51
2022/11/09 03:59:29;;;;;;;4.07;1.90;;;9.60;99.90;;;;;;5007808;28;20042;-55
2022/11/09 04:01:54;;;;;;;2.90;1.60;;;9.60;99.90;;;;;;4987674;28;20122;-56
2022/11/09 04:04:19;;;;;;;4.65;1.95;;;9.60;99.90;;;;;;5007843;28;20038;-54
2022/11/09 04:06:45;;;;;;;1.80;1.20;;;9.70;99.90;;;;;;4987847;28;20072;-54
2022/11/09 04:09:10;;;;;;;3.95;2.35;;;9.80;99.90;;;;;;5011541;28;20053;-52
2022/11/09 04:11:36;;;;;;;5.53;2.25;;;10.00;99.90;;;;;;5004062;28;20029;-56
2022/11/09 04:14:01;;;;;;;4.32;2.08;;;10.10;99.90;;;;;;4995894;28;20113;-57
2022/11/09 04:16:27;;;;;;;3.40;2.33;;;10.20;99.90;;;;;;5012244;28;20079;-56
2022/11/09 04:18:52;;;;;;;4.20;1.77;;;10.30;99.90;;;;;;4995851;28;20034;-53
2022/11/09 04:21:18;;;;;;;3.25;1.80;;;10.40;99.90;;;;;;5012142;28;20068;-54
2022/11/09 04:23:43;;;;;;;2.83;2.00;;;10.50;99.90;;;;;;4995698;28;20030;-55
2022/11/09 04:26:09;;;;;;;2.97;2.00;;;10.60;99.90;;;;;;5011855;28;20079;-55
2022/11/09 04:28:34;;;;;;;2.13;1.70;;;10.60;99.90;;;;;;5009134;28;20029;-54
2022/11/09 04:31:01;;;;;;;3.30;2.25;;;10.70;99.90;;;;;;4999122;28;20026;-53
2022/11/09 04:33:27;;;;;;;3.22;1.70;;;10.80;99.90;;;;;;5014874;28;20414;-56
2022/11/09 04:35:52;;;;;;;1.95;1.63;;;10.80;99.90;;;;;;4998134;28;20037;-57
2022/11/09 04:38:18;;;;;;;2.30;1.70;;;10.90;99.90;;;;;;5012666;28;20112;-55
2022/11/09 04:40:43;;;;;;;2.08;1.40;;;11.00;99.90;;;;;;4998961;28;20097;-55
2022/11/09 04:43:12;;;;;;;3.33;1.80;;;11.00;99.90;;;;;;5015139;28;20514;-52
2022/11/09 04:45:38;;;;;;;3.35;1.92;;;11.10;99.90;;;;;;4991614;28;20046;-56
2022/11/09 04:48:05;;;;;;;3.67;1.83;;;11.10;99.90;;;;;;4994702;28;20053;-57
2022/11/09 04:50:31;;;;;;;2.60;1.88;;;11.10;99.90;;;;;;4998291;28;20246;-56
2022/11/09 04:53:11;;;;;;;2.45;1.58;;;11.20;99.90;;;;;;5014245;28;20401;-56
2022/11/09 04:55:38;;;;;;;3.78;2.22;;;11.20;99.90;;;;;;4989418;28;20030;-54
2022/11/09 04:58:04;;;;;;;3.75;1.60;;;11.30;99.90;;;;;;4996927;28;20509;-58
2022/11/09 05:00:30;;;;;;;2.85;1.85;;;11.30;99.90;;;;;;4993189;28;20022;-57
2022/11/09 05:03:00;;;;;;;3.47;1.73;;;11.30;99.90;;;;;;5014263;28;20130;-55
2022/11/09 05:05:25;;;;;;;3.60;1.67;;;11.30;99.90;;;;;;4993557;28;20034;-57
2022/11/09 05:07:51;;;;;;;3.17;1.58;;;11.40;99.90;;;;;;5014043;28;20037;-55
2022/11/09 05:10:16;;;;;;;2.28;1.70;;;11.40;99.90;;;;;;4993736;28;20490;-53
2022/11/09 05:12:42;;;;;;;2.75;2.10;;;11.40;99.90;;;;;;5013900;28;20030;-54
2022/11/09 05:15:08;;;;;;;3.35;1.92;;;11.40;99.90;;;;;;4993807;28;20105;-54
2022/11/09 05:17:33;;;;;;;3.70;2.05;;;11.40;99.90;;;;;;5014117;28;20096;-56
2022/11/09 05:19:59;;;;;;;2.75;1.73;;;11.40;99.90;;;;;;5002857;28;20030;-56
2022/11/09 05:25:09;;;;;;;3.97;2.10;;;11.30;99.90;;;;;;4993507;28;20425;-54
2022/11/09 05:27:34;;;;;;;5.45;2.20;;;11.30;99.90;;;;;;4986763;28;20026;-56
2022/11/09 05:30:00;;;;;;;3.78;2.10;;;11.30;99.90;;;;;;5008159;28;20042;-55
2022/11/09 05:32:25;;;;;;;3.30;2.20;;;11.30;99.90;;;;;;4992238;28;20041;-55
2022/11/09 05:34:51;;;;;;;2.53;1.70;;;11.30;99.90;;;;;;4991270;28;20735;-55
2022/11/09 05:37:19;;;;;;;4.93;1.90;;;11.30;99.90;;;;;;5001841;28;20030;-48
2022/11/09 05:39:44;;;;;;;2.50;1.98;;;11.20;99.90;;;;;;4988178;28;20125;-50
2022/11/09 05:42:10;;;;;;;2.88;1.98;;;11.20;99.90;;;;;;5008845;28;20473;-51
2022/11/09 05:44:35;;;;;;;2.50;1.70;;;11.20;99.90;;;;;;4999092;28;20025;-52
2022/11/09 05:47:01;;;;;;;2.80;1.98;;;11.20;99.90;;;;;;4989989;28;20030;-48
2022/11/09 05:49:26;;;;;;;3.45;2.28;;;11.20;99.90;;;;;;4988026;28;20038;-47
2022/11/09 05:51:52;;;;;;;2.63;2.13;;;11.10;99.90;;;;;;4988054;28;20069;-50
2022/11/09 05:54:17;;;;;;;4.32;2.40;;;11.10;99.90;;;;;;5000286;28;20030;-52
2022/11/09 05:56:43;;;;;;;2.95;2.20;;;11.10;99.90;;;;;;4997574;28;20665;-48
2022/11/09 05:59:08;;;;;;;4.18;2.53;;;11.10;99.90;;;;;;4990771;28;20077;-51
2022/11/09 06:01:33;;;;;;;3.67;2.38;;;11.10;99.90;;;;;;5005471;28;20366;-49
2022/11/09 06:03:59;;;;;;;2.67;1.90;;;11.10;99.90;;;;;;4989108;28;20513;-49
2022/11/09 06:06:24;;;;;;;4.65;2.20;;;11.10;99.90;;;;;;5006724;28;20026;-49
2022/11/09 06:08:50;;;;;;;3.17;2.40;;;11.10;99.90;;;;;;4990161;28;20031;-50
2022/11/09 06:11:15;;;;;;;3.88;2.67;;;11.10;99.90;;;;;;5006844;28;20108;-48
2022/11/09 06:13:41;;;;;;;3.50;2.42;;;11.10;99.90;;;;;;5009347;28;20024;-48
2022/11/09 06:16:08;;;;;;;6.75;2.20;;;11.10;99.90;;;;;;4993650;28;20030;-48
2022/11/09 06:18:34;;;;;;;3.67;2.47;;;11.10;99.90;;;;;;5009294;28;20021;-46
2022/11/09 06:21:02;;;;;;;4.45;2.13;;;11.20;99.90;;;;;;4991329;28;20509;-46
2022/11/09 06:23:29;;;;;;;2.83;1.70;;;11.10;99.90;;;;;;5000028;28;20038;-49
2022/11/09 06:25:59;;;;;;;5.28;2.05;;;11.10;99.90;;;;;;4987882;28;20062;-46
2022/11/09 06:28:25;;;;;;;5.65;2.20;;;11.10;99.90;;;;;;4983444;28;20053;-49
2022/11/09 06:30:51;;;;;;;5.13;2.10;;;11.10;99.90;;;;;;4990045;28;20033;-52
2022/11/09 06:33:16;;;;;;;3.53;2.28;;;11.10;99.90;;;;;;4991863;28;20030;-49
2022/11/09 06:35:42;;;;;;;2.30;1.85;;;11.10;99.90;;;;;;5006054;28;20087;-51
2022/11/09 06:38:09;;;;;;;3.78;2.25;;;11.10;99.90;;;;;;4994846;28;20021;-48
2022/11/09 06:40:35;;;;;;;5.18;2.58;;;11.10;99.90;;;;;;4986296;28;20031;-47
2022/11/09 06:43:02;;;;;;;3.90;2.50;;;11.10;99.90;;;;;;5002745;28;20597;-51
2022/11/09 06:45:29;;;;;;;3.55;2.13;;;11.10;99.90;;;;;;4990847;28;20058;-53
2022/11/09 06:47:59;;;;;;;3.13;2.53;;;11.10;99.90;;;;;;4995808;28;20542;-47
2022/11/09 06:50:27;;;;;;;3.50;2.28;;;11.10;99.90;;;;;;5009064;28;20343;-51
2022/11/09 06:53:00;;;;;;;3.97;2.75;;;11.20;99.90;;;;;;4988339;28;20499;-49
2022/11/09 06:55:26;;;;;;;4.75;3.00;;;11.20;99.90;;;;;;4970583;28;20034;-48
2022/11/09 06:57:52;;;;;;;7.22;2.50;;;11.20;99.90;;;;;;4994901;28;20506;-47
2022/11/09 07:00:18;;;;;;;3.78;2.53;;;11.20;99.90;;;;;;5008597;28;20065;-49
2022/11/09 07:02:43;;;;;;;5.93;2.65;;;11.20;99.90;;;;;;4999140;28;20391;-47
2022/11/09 07:05:09;;;;;;;5.82;2.78;;;11.30;99.90;;;;;;4990259;28;20271;-49
2022/11/09 07:07:34;;;;;;;4.72;2.55;;;11.30;99.90;;;;;;5006834;28;20448;-51
2022/11/09 07:10:00;;;;;;;4.97;3.30;;;11.30;99.90;;;;;;4990411;28;20041;-47
2022/11/09 07:12:25;;;;;;;5.47;3.00;;;11.40;99.90;;;;;;5006613;28;20018;-47
2022/11/09 07:14:51;;;;;;;6.95;3.05;;;11.40;99.90;;;;;;4990463;28;20126;-49
2022/11/09 07:17:16;;;;;;;2.83;2.45;;;11.50;99.90;;;;;;5006613;28;20085;-50
2022/11/09 07:19:42;;;;;;;4.15;2.80;;;11.50;99.90;;;;;;5009404;28;20392;-47
2022/11/09 07:22:08;;;;;;;4.75;2.83;;;11.50;99.90;;;;;;4994117;28;20042;-53
2022/11/09 07:24:33;;;;;;;4.60;3.10;;;11.50;99.90;;;;;;5009102;28;20482;-49
2022/11/09 07:26:58;;;;;;;4.53;2.75;;;11.60;99.90;;;;;;4988340;28;20081;-47
2022/11/09 07:29:24;;;;;;;5.65;3.25;;;11.60;99.90;;;;;;4989722;28;20030;-49
2022/11/09 07:31:49;;;;;;;5.38;3.67;;;11.60;99.90;;;;;;5006449;28;20657;-58
2022/11/09 07:34:15;;;;;;;4.90;3.28;;;11.60;99.90;;;;;;5009419;28;20105;-58
2022/11/09 07:36:40;;;;;;;5.38;3.35;;;11.60;99.90;;;;;;4989832;28;20029;-53
2022/11/09 07:39:06;;;;;;;7.85;3.60;;;11.60;99.90;;;;;;5000164;28;20125;-52
2022/11/09 07:41:31;;;;;;;4.90;3.42;;;11.70;99.90;;;;;;5004907;28;20035;-50
2022/11/09 07:43:57;;;;;;;3.72;3.08;;;11.70;99.90;;;;;;5008360;28;20072;-53
2022/11/09 07:46:23;;;;;;;5.88;3.33;;;11.70;99.90;;;;;;4989872;28;20038;-51
2022/11/09 07:48:48;;;;;;;9.80;3.92;;;11.70;99.90;;;;;;5006685;28;20030;-55
2022/11/09 07:51:14;;;;;;;6.07;3.30;;;11.70;99.90;;;;;;4989745;28;20519;-52
2022/11/09 07:53:39;;;;;;;5.57;3.25;;;11.70;99.90;;;;;;4988251;28;20030;-49
2022/11/09 07:56:05;;;;;;;5.28;3.58;;;11.60;99.90;;;;;;5007880;28;20038;-53
2022/11/09 07:58:33;;;;;;;5.03;3.35;;;11.60;99.90;;;;;;4987937;28;20149;-49
2022/11/09 08:00:58;;;;;;;5.60;3.50;;;11.60;99.90;;;;;;5008164;28;20033;-55
2022/11/09 08:03:24;;;;;;;7.00;4.03;;;11.60;99.90;;;;;;4986541;28;20177;-52
2022/11/09 08:05:50;;;;;;;11.13;4.00;;;11.60;99.90;;;;;;5008144;28;20033;-51
2022/11/09 08:08:16;;;;;;;6.18;4.10;;;11.60;99.90;;;;;;4987553;28;20630;-52
2022/11/09 08:10:43;;;;;;;12.35;3.78;;;11.60;99.90;;;;;;5008109;28;20580;-50
2022/11/09 08:13:13;;;;;;;7.80;4.35;;;11.60;99.90;;;;;;4987499;28;20034;-53
2022/11/09 08:15:40;;;;;;;9.82;3.90;;;11.60;99.90;;;;;;5008129;28;20034;-52
2022/11/09 08:18:10;;;;;;;5.47;3.58;;;11.60;99.90;;;;;;4987285;28;20530;-54
2022/11/09 08:20:35;;;;;;;7.50;3.80;;;11.70;99.90;;;;;;5008326;28;20092;-51
2022/11/09 08:23:01;;;;;;;5.35;3.47;;;11.70;99.90;;;;;;4987361;28;20042;-49
2022/11/09 08:25:27;;;;;;;6.40;3.60;;;11.70;99.90;;;;;;5008078;28;20109;-53
2022/11/09 08:27:55;;;;;;;5.13;3.55;;;11.80;99.90;;;;;;4984149;28;20058;-50
2022/11/09 08:30:21;;;;;;;12.10;3.75;;;11.80;99.90;;;;;;5008146;28;20030;-49
2022/11/09 08:32:47;;;;;;;6.15;3.38;;;11.80;99.90;;;;;;4987670;28;20029;-51
2022/11/09 08:35:16;;;;;;;6.70;4.40;;;11.90;99.90;;;;;;5007919;28;20084;-49
2022/11/09 08:37:43;;;;;;;5.78;4.15;;;11.80;99.90;;;;;;4997283;28;20033;-53
2022/11/09 08:40:09;;;;;;;4.80;3.45;;;11.90;99.90;;;;;;4988964;28;20038;-54
2022/11/09 08:42:34;;;;;;;6.50;4.28;;;11.90;99.90;;;;;;5005670;28;20494;-50
2022/11/09 08:45:00;;;;;;;5.53;3.88;;;11.80;99.90;;;;;;4989143;28;20681;-50
2022/11/09 08:47:27;;;;;;;5.93;3.92;;;11.90;99.90;;;;;;5005675;28;20033;-50
2022/11/09 08:49:52;;;;;;;7.90;4.60;;;11.80;99.90;;;;;;4989060;28;20022;-53
2022/11/09 08:52:18;;;;;;;10.20;4.18;;;11.90;99.90;;;;;;5005540;28;20109;-52
2022/11/09 08:54:43;;;;;;;8.38;4.97;;;11.80;99.90;;;;;;5009285;28;20035;-50
2022/11/09 08:57:09;;;;;;;10.80;5.68;;;11.80;99.90;;;;;;4996586;28;20034;-51
2022/11/09 08:59:34;;;;;;;7.85;4.93;;;11.80;99.90;;;;;;5012285;28;20066;-50
2022/11/09 09:02:00;;;;;;;10.20;5.50;;;11.80;99.90;;;;;;4995379;28;20049;-51
2022/11/09 09:04:26;;;;;;;11.45;4.32;;;11.70;99.90;;;;;;5010498;28;20037;-51
2022/11/09 09:06:51;;;;;;;8.50;4.20;;;11.70;99.90;;;;;;4994307;28;20017;-55
2022/11/09 09:09:17;;;;;;;8.27;4.97;;;11.70;99.90;;;;;;5011629;28;20116;-55
2022/11/09 09:11:42;;;;;;;7.55;4.50;;;11.80;99.90;;;;;;4993084;28;20491;-51
2022/11/09 09:14:08;;;;;;;8.27;4.63;;;11.70;99.90;;;;;;5011737;28;20037;-52
2022/11/09 09:16:33;;;;;;;6.80;4.32;;;11.80;99.90;;;;;;4991497;28;20367;-52
2022/11/09 09:18:59;;;;;;;10.20;4.95;;;11.80;99.90;;;;;;5011752;28;20026;-52
2022/11/09 09:21:24;;;;;;;6.13;4.57;;;11.80;99.90;;;;;;4992312;28;20613;-52
2022/11/09 09:23:50;;;;;;;6.63;4.55;;;11.90;99.90;;;;;;5009474;28;20026;-52
2022/11/09 09:26:16;;;;;;;8.23;5.00;;;11.90;99.90;;;;;;4993679;28;20050;-52
2022/11/09 09:28:43;;;;;;;6.63;3.95;;;11.90;99.90;;;;;;4988379;28;20065;-50
2022/11/09 09:31:09;;;;;;;8.90;5.65;;;12.00;99.90;;;;;;5010724;28;20030;-53
2022/11/09 09:33:34;;;;;;;8.60;4.32;;;12.10;99.90;;;;;;4990502;28;20074;-51
2022/11/09 09:36:00;;;;;;;10.52;5.25;;;12.10;99.90;;;;;;5010504;28;20034;-49
2022/11/09 09:38:26;;;;;;;6.57;4.38;;;12.10;99.90;;;;;;4992993;28;20092;-49
2022/11/09 09:40:59;;;;;;;8.20;5.47;;;12.20;99.90;;;;;;5010989;28;20589;-52
2022/11/09 09:43:27;;;;;;;9.38;4.38;;;12.20;99.90;;;;;;4989761;28;20465;-51
2022/11/09 09:45:54;;;;;;;6.28;4.50;;;12.20;99.90;;;;;;5010876;28;20069;-52
2022/11/09 09:48:37;;;;;;;10.30;4.93;;;12.30;99.90;;;;;;4990056;28;20030;-53
2022/11/09 09:51:17;;;;;;;7.25;4.60;;;12.30;99.90;;;;;;4971832;28;20133;-55
2022/11/09 09:53:52;;;;;;;7.88;4.63;;;12.30;99.90;;;;;;4988456;28;20038;-50
2022/11/09 09:56:25;;;;;;;5.97;3.90;;;12.30;99.90;;;;;;4971824;28;20196;-51
2022/11/09 09:59:00;;;;;;;8.57;4.45;;;12.40;99.90;;;;;;4971843;28;20089;-52
2022/11/09 10:01:42;;;;;;;6.82;4.70;;;12.40;99.90;;;;;;5009669;28;20033;-53
2022/11/09 10:04:20;;;;;;;8.18;4.30;;;12.40;99.90;;;;;;5010561;28;20033;-50
2022/11/09 10:06:58;;;;;;;5.30;4.05;;;12.50;99.90;;;;;;4990975;28;20531;-52
2022/11/09 10:09:50;;;;;;;7.90;5.15;;;12.60;99.90;;;;;;5010585;28;20044;-48
2022/11/09 10:12:36;;;;;;;8.68;3.80;;;12.70;99.90;;;;;;4983252;28;20026;-50
2022/11/09 10:15:13;;;;;;;7.18;4.28;;;12.60;99.90;;;;;;5010373;28;20184;-54
2022/11/09 10:17:57;;;;;;;6.28;4.50;;;12.60;99.90;;;;;;4998907;28;20037;-50
2022/11/09 10:21:00;;;;;;;8.07;4.88;;;12.60;99.90;;;;;;4971398;28;20679;-51
2022/11/09 10:23:51;;;;;;;7.85;3.70;;;12.70;99.90;;;;;;4990480;28;20053;-50
2022/11/09 10:26:20;;;;;;;9.40;4.65;;;12.80;99.90;;;;;;4974431;28;20034;-52
2022/11/09 10:28:56;;;;;;;4.15;3.70;;;12.80;99.90;;;;;;4986693;28;20646;-48
2022/11/09 10:31:22;;;;;;;6.75;4.07;;;12.80;99.90;;;;;;4971170;28;20105;-52
2022/11/09 10:33:54;;;;;;;7.82;4.00;;;12.90;99.90;;;;;;5007666;28;20450;-50
2022/11/09 10:36:30;;;;;;;8.00;4.10;;;12.90;99.90;;;;;;4971114;28;20117;-53
2022/11/09 10:39:00;;;;;;;5.25;4.00;;;12.90;99.90;;;;;;4985072;28;20114;-53
2022/11/09 10:41:30;;;;;;;4.68;3.63;;;13.00;99.90;;;;;;5008892;28;20030;-52
2022/11/09 10:43:56;;;;;;;6.45;4.20;;;13.00;99.90;;;;;;5010061;28;20417;-53
2022/11/09 10:46:21;;;;;;;8.15;4.32;;;13.00;99.90;;;;;;4990639;28;20031;-53
2022/11/09 10:48:47;;;;;;;10.27;4.40;;;13.00;99.90;;;;;;5007513;28;20084;-53
2022/11/09 10:51:34;;;;;;;6.80;3.55;;;13.10;99.90;;;;;;4990764;28;20101;-52
2022/11/09 10:54:20;;;;;;;4.65;3.35;;;13.10;99.90;;;;;;4970863;28;20476;-50
2022/11/09 10:56:57;;;;;;;5.25;3.53;;;13.20;99.90;;;;;;4974201;28;21097;-52
2022/11/09 10:59:38;;;;;;;4.65;3.28;;;13.30;99.90;;;;;;5009724;28;20034;-54
2022/11/09 11:02:22;;;;;;;5.38;3.47;;;13.40;99.90;;;;;;4992963;28;20026;-49
2022/11/09 11:04:48;;;;;;;8.93;3.67;;;13.40;99.90;;;;;;4990627;28;20037;-51
2022/11/09 11:07:18;;;;;;;6.03;3.55;;;13.50;99.90;;;;;;5006531;28;20037;-49
2022/11/09 11:09:43;;;;;;;6.28;3.45;;;13.40;99.90;;;;;;5009576;28;20037;-49
2022/11/09 11:12:15;;;;;;;5.38;3.50;;;13.40;99.90;;;;;;4994128;28;20030;-54
2022/11/09 11:14:44;;;;;;;4.65;2.95;;;13.40;99.90;;;;;;5009666;28;20038;-50
2022/11/09 11:17:34;;;;;;;5.00;3.88;;;13.40;99.90;;;;;;4993884;28;20103;-49
2022/11/09 11:20:23;;;;;;;6.18;4.22;;;13.40;99.90;;;;;;4970190;28;20085;-55
2022/11/09 11:22:49;;;;;;;6.30;3.70;;;13.40;99.90;;;;;;4990559;28;20041;-53
2022/11/09 11:25:20;;;;;;;5.55;3.85;;;13.40;99.90;;;;;;4990004;28;20092;-52
2022/11/09 11:27:54;;;;;;;4.90;3.45;;;13.30;99.90;;;;;;5003557;28;20639;-49
2022/11/09 11:30:30;;;;;;;5.75;3.88;;;13.30;99.90;;;;;;4970127;28;20039;-51
2022/11/09 11:32:56;;;;;;;;;;;13.40;99.90;;;;;;4981189;28;20053;-54
2022/11/09 11:35:26;;;;;;;7.80;3.88;;;13.40;99.90;;;;;;5008128;28;20004;-52
2022/11/09 11:38:19;;;;;;;4.45;3.28;;;13.40;99.90;;;;;;4987642;28;20394;-53
2022/11/09 11:41:09;;;;;;;6.03;3.90;;;13.40;99.90;;;;;;4970032;28;20495;-53
2022/11/09 11:43:40;;;;;;;5.82;3.45;;;13.50;99.90;;;;;;4984270;28;20052;-51
2022/11/09 11:46:24;;;;;;;6.15;3.63;;;13.60;99.90;;;;;;5008329;28;20180;-51
2022/11/09 11:49:05;;;;;;;5.13;3.80;;;13.70;99.90;;;;;;5007103;28;20517;-49
2022/11/09 11:51:35;;;;;;;5.30;3.65;;;13.70;99.90;;;;;;4969226;28;20034;-53
2022/11/09 11:54:32;;;;;;;5.20;3.63;;;13.70;99.90;;;;;;5008854;28;20022;-51
2022/11/09 11:57:19;;;;;;;5.97;3.45;;;13.70;99.90;;;;;;4972208;28;20038;-51
2022/11/09 11:59:59;;;;;;;6.00;3.72;;;13.70;99.90;;;;;;5008683;28;20105;-50
2022/11/09 12:02:51;;;;;;;6.32;3.45;;;13.70;99.90;;;;;;4983826;28;20030;-54
2022/11/09 12:05:38;;;;;;;5.15;3.45;;;13.70;99.90;;;;;;4970018;28;20382;-49
2022/11/09 12:08:31;;;;;;;7.43;3.58;;;13.70;99.90;;;;;;4991895;28;20053;-51
2022/11/09 12:11:26;;;;;;;3.80;3.08;;;13.70;99.90;;;;;;4962246;28;20367;-54
2022/11/09 12:13:57;;;;;;;6.65;4.43;;;13.70;99.90;;;;;;4969552;28;20030;-52
2022/11/09 12:17:07;;;;;;;5.63;3.83;;;13.70;99.90;;;;;;5007134;28;20525;-50
2022/11/09 12:19:55;;;;;;;6.45;3.72;;;13.60;99.90;;;;;;5007935;28;20042;-53
2022/11/09 12:22:48;;;;;;;7.72;4.40;;;13.50;99.90;;;;;;4994754;28;20025;-54
2022/11/09 12:25:28;;;;;;;5.18;3.85;;;13.50;99.90;;;;;;4974053;28;20034;-54
2022/11/09 12:28:07;;;;;;;6.47;3.80;;;13.50;99.90;;;;;;4964454;28;20058;-53
2022/11/09 12:30:49;;;;;;;5.13;3.47;;;13.60;99.90;;;;;;5009108;28;20026;-52
2022/11/09 12:33:21;;;;;;;12.65;5.15;;;13.60;99.90;;;;;;4973512;28;20023;-54
2022/11/09 12:35:58;;;;;;;14.60;4.60;;;13.70;99.90;;;;;;4990165;28;20053;-55
2022/11/09 12:38:31;;;;;;;6.38;3.40;;;13.80;99.90;;;;;;4978844;28;20041;-54
2022/11/09 12:41:04;;;;;;;5.60;3.45;;;13.80;99.90;;;;;;5004578;28;20034;-51
2022/11/09 12:43:52;;;;;;;5.68;3.58;;;14.00;99.90;;;;;;4991935;28;20153;-52
2022/11/09 12:46:22;;;;;;;5.22;3.13;;;14.00;99.90;;;;;;4981745;28;20033;-55
2022/11/09 12:48:49;;;;;;;5.63;3.50;;;14.10;99.90;;;;;;5012444;28;20033;-55
2022/11/09 12:51:15;;;;;;;5.60;3.83;;;14.10;99.90;;;;;;4995814;28;20033;-53
2022/11/09 12:53:40;;;;;;;4.68;3.13;;;14.10;99.90;;;;;;5004357;28;20501;-50
2022/11/09 12:56:39;;;;;;;5.05;3.38;;;14.00;99.90;;;;;;5009525;28;20030;-51
2022/11/09 12:59:32;;;;;;;8.18;5.60;;;14.00;99.90;;;;;;4983828;28;20449;-50
2022/11/09 13:02:00;;;;;;;10.50;6.82;;;13.90;99.90;;;;;;4992486;28;20042;-50
2022/11/09 13:04:26;;;;;;;17.60;6.72;;;13.90;99.90;;;;;;4994838;28;20112;-49
2022/11/09 13:07:06;;;;;;;6.05;4.63;;;14.00;99.90;;;;;;5011427;28;20441;-51